sensor_id;sensor_type;location;lat;lon;timestamp;pressure;altitude;pressure_sealevel;temperature;humidity
54924;BME280;40825;52.270;20.984;2023-05-22T00:01:34;101066.10;;;13.94;61.61
54924;BME280;40825;52.270;20.984;2023-05-22T00:04:02;101067.73;;;13.89;62.00
54924;BME280;40825;52.270;20.984;2023-05-22T00:06:28;101064.61;;;13.85;61.91
54924;BME280;40825;52.270;20.984;2023-05-22T00:08:54;101065.83;;;13.83;61.92
54924;BME280;40825;52.270;20.984;2023-05-22T00:11:21;101062.14;;;13.80;62.58
54924;BME280;40825;52.270;20.984;2023-05-22T00:13:46;101059.04;;;13.74;62.50
54924;BME280;40825;52.270;20.984;2023-05-22T00:16:12;101058.58;;;13.71;62.48
54924;BME280;40825;52.270;20.984;2023-05-22T00:18:37;101058.17;;;13.68;62.78
54924;BME280;40825;52.270;20.984;2023-05-22T00:21:07;101058.36;;;13.66;62.71
54924;BME280;40825;52.270;20.984;2023-05-22T00:23:33;101053.84;;;13.63;62.87
54924;BME280;40825;52.270;20.984;2023-05-22T00:25:59;101051.18;;;13.60;63.58
54924;BME280;40825;52.270;20.984;2023-05-22T00:28:24;101050.83;;;13.57;63.33
54924;BME280;40825;52.270;20.984;2023-05-22T00:30:50;101053.45;;;13.55;63.42
54924;BME280;40825;52.270;20.984;2023-05-22T00:33:16;101051.54;;;13.53;63.60
54924;BME280;40825;52.270;20.984;2023-05-22T00:35:41;101054.11;;;13.49;63.67
54924;BME280;40825;52.270;20.984;2023-05-22T00:38:07;101051.42;;;13.45;63.89
54924;BME280;40825;52.270;20.984;2023-05-22T00:40:33;101049.16;;;13.39;63.84
54924;BME280;40825;52.270;20.984;2023-05-22T00:42:58;101047.95;;;13.36;64.21
54924;BME280;40825;52.270;20.984;2023-05-22T00:45:24;101048.95;;;13.33;64.63
54924;BME280;40825;52.270;20.984;2023-05-22T00:47:50;101049.97;;;13.31;64.33
54924;BME280;40825;52.270;20.984;2023-05-22T00:50:17;101049.34;;;13.29;64.68
54924;BME280;40825;52.270;20.984;2023-05-22T00:52:44;101052.14;;;13.26;64.89
54924;BME280;40825;52.270;20.984;2023-05-22T00:55:13;101049.20;;;13.23;64.93
54924;BME280;40825;52.270;20.984;2023-05-22T00:57:40;101049.33;;;13.18;65.58
54924;BME280;40825;52.270;20.984;2023-05-22T01:00:12;101045.01;;;13.16;65.75
54924;BME280;40825;52.270;20.984;2023-05-22T01:02:38;101047.42;;;13.14;65.53
54924;BME280;40825;52.270;20.984;2023-05-22T01:05:04;101047.86;;;13.12;65.85
54924;BME280;40825;52.270;20.984;2023-05-22T01:07:35;101046.55;;;13.09;66.09
54924;BME280;40825;52.270;20.984;2023-05-22T01:10:05;101044.70;;;13.05;66.79
54924;BME280;40825;52.270;20.984;2023-05-22T01:12:41;101045.45;;;13.02;66.70
54924;BME280;40825;52.270;20.984;2023-05-22T01:15:25;101046.92;;;13.00;66.05
54924;BME280;40825;52.270;20.984;2023-05-22T01:20:54;101054.93;;;12.97;66.34
54924;BME280;40825;52.270;20.984;2023-05-22T01:28:59;101049.30;;;12.90;66.68
54924;BME280;40825;52.270;20.984;2023-05-22T01:31:30;101047.15;;;12.86;67.18
54924;BME280;40825;52.270;20.984;2023-05-22T01:33:59;101047.75;;;12.81;67.32
54924;BME280;40825;52.270;20.984;2023-05-22T01:36:29;101047.63;;;12.77;67.44
54924;BME280;40825;52.270;20.984;2023-05-22T01:38:57;101047.73;;;12.75;67.41
54924;BME280;40825;52.270;20.984;2023-05-22T01:41:27;101048.65;;;12.72;67.85
54924;BME280;40825;52.270;20.984;2023-05-22T01:43:53;101050.23;;;12.69;68.13
54924;BME280;40825;52.270;20.984;2023-05-22T01:46:19;101047.27;;;12.67;67.89
54924;BME280;40825;52.270;20.984;2023-05-22T01:48:44;101047.88;;;12.65;68.38
54924;BME280;40825;52.270;20.984;2023-05-22T01:54:09;101045.81;;;12.57;68.33
54924;BME280;40825;52.270;20.984;2023-05-22T01:56:46;101042.82;;;12.55;68.49
54924;BME280;40825;52.270;20.984;2023-05-22T02:01:48;101044.46;;;12.55;68.69
54924;BME280;40825;52.270;20.984;2023-05-22T02:04:18;101045.35;;;12.53;68.56
54924;BME280;40825;52.270;20.984;2023-05-22T02:06:45;101043.02;;;12.52;68.71
54924;BME280;40825;52.270;20.984;2023-05-22T02:09:12;101046.85;;;12.51;68.68
54924;BME280;40825;52.270;20.984;2023-05-22T02:11:39;101045.56;;;12.50;69.57
54924;BME280;40825;52.270;20.984;2023-05-22T02:14:06;101048.00;;;12.47;69.57
54924;BME280;40825;52.270;20.984;2023-05-22T02:16:33;101049.73;;;12.47;69.14
54924;BME280;40825;52.270;20.984;2023-05-22T02:19:00;101053.25;;;12.46;69.86
54924;BME280;40825;52.270;20.984;2023-05-22T02:21:34;101052.59;;;12.42;70.03
54924;BME280;40825;52.270;20.984;2023-05-22T02:24:01;101054.37;;;12.39;70.03
54924;BME280;40825;52.270;20.984;2023-05-22T02:26:27;101057.94;;;12.37;70.08
54924;BME280;40825;52.270;20.984;2023-05-22T02:28:53;101054.48;;;12.35;71.17
54924;BME280;40825;52.270;20.984;2023-05-22T02:31:18;101050.54;;;12.32;71.07
54924;BME280;40825;52.270;20.984;2023-05-22T02:33:44;101053.62;;;12.32;70.76
54924;BME280;40825;52.270;20.984;2023-05-22T02:36:10;101049.55;;;12.33;71.23
54924;BME280;40825;52.270;20.984;2023-05-22T02:38:39;101045.46;;;12.32;70.80
54924;BME280;40825;52.270;20.984;2023-05-22T02:41:07;101045.73;;;12.29;71.39
54924;BME280;40825;52.270;20.984;2023-05-22T02:43:32;101042.21;;;12.29;71.38
54924;BME280;40825;52.270;20.984;2023-05-22T02:45:58;101045.13;;;12.28;71.45
54924;BME280;40825;52.270;20.984;2023-05-22T02:48:23;101045.20;;;12.28;71.84
54924;BME280;40825;52.270;20.984;2023-05-22T02:50:49;101043.63;;;12.26;72.22
54924;BME280;40825;52.270;20.984;2023-05-22T02:53:14;101039.55;;;12.27;71.87
54924;BME280;40825;52.270;20.984;2023-05-22T02:55:42;101037.33;;;12.27;72.02
54924;BME280;40825;52.270;20.984;2023-05-22T02:58:10;101031.98;;;12.25;72.44
54924;BME280;40825;52.270;20.984;2023-05-22T03:00:41;101033.75;;;12.23;72.94
54924;BME280;40825;52.270;20.984;2023-05-22T03:03:07;101033.98;;;12.21;73.50
54924;BME280;40825;52.270;20.984;2023-05-22T03:05:33;101030.45;;;12.21;73.06
54924;BME280;40825;52.270;20.984;2023-05-22T03:07:58;101026.46;;;12.20;73.27
54924;BME280;40825;52.270;20.984;2023-05-22T03:10:24;101027.04;;;12.21;72.90
54924;BME280;40825;52.270;20.984;2023-05-22T03:12:50;101025.27;;;12.23;72.96
54924;BME280;40825;52.270;20.984;2023-05-22T03:15:18;101026.55;;;12.24;72.84
54924;BME280;40825;52.270;20.984;2023-05-22T03:17:44;101030.83;;;12.24;73.03
54924;BME280;40825;52.270;20.984;2023-05-22T03:20:10;101035.23;;;12.24;73.19
54924;BME280;40825;52.270;20.984;2023-05-22T03:22:40;101033.44;;;12.24;73.46
54924;BME280;40825;52.270;20.984;2023-05-22T03:25:06;101029.23;;;12.26;73.23
54924;BME280;40825;52.270;20.984;2023-05-22T03:27:34;101023.95;;;12.28;73.48
54924;BME280;40825;52.270;20.984;2023-05-22T03:30:00;101023.23;;;12.29;73.65
54924;BME280;40825;52.270;20.984;2023-05-22T03:32:26;101025.73;;;12.31;73.61
54924;BME280;40825;52.270;20.984;2023-05-22T03:34:51;101027.73;;;12.33;73.81
54924;BME280;40825;52.270;20.984;2023-05-22T03:37:17;101029.86;;;12.36;73.79
54924;BME280;40825;52.270;20.984;2023-05-22T03:39:43;101030.50;;;12.41;73.90
54924;BME280;40825;52.270;20.984;2023-05-22T03:42:08;101030.06;;;12.42;73.85
54924;BME280;40825;52.270;20.984;2023-05-22T03:44:34;101030.91;;;12.44;73.86
54924;BME280;40825;52.270;20.984;2023-05-22T03:47:00;101029.63;;;12.47;73.76
54924;BME280;40825;52.270;20.984;2023-05-22T03:49:25;101030.45;;;12.51;73.58
54924;BME280;40825;52.270;20.984;2023-05-22T03:51:50;101036.45;;;12.57;73.83
54924;BME280;40825;52.270;20.984;2023-05-22T03:54:16;101036.55;;;12.65;73.76
54924;BME280;40825;52.270;20.984;2023-05-22T03:56:42;101036.01;;;12.76;73.64
54924;BME280;40825;52.270;20.984;2023-05-22T03:59:07;101036.52;;;12.90;73.68
54924;BME280;40825;52.270;20.984;2023-05-22T04:01:33;101032.05;;;13.15;73.46
54924;BME280;40825;52.270;20.984;2023-05-22T04:03:58;101032.83;;;13.23;73.58
54924;BME280;40825;52.270;20.984;2023-05-22T04:06:25;101033.08;;;13.70;73.15
54924;BME280;40825;52.270;20.984;2023-05-22T04:08:50;101031.43;;;14.88;72.63
54924;BME280;40825;52.270;20.984;2023-05-22T04:11:16;101030.71;;;15.47;72.07
54924;BME280;40825;52.270;20.984;2023-05-22T04:13:43;101032.79;;;15.32;72.18
54924;BME280;40825;52.270;20.984;2023-05-22T04:16:09;101032.78;;;15.36;71.82
54924;BME280;40825;52.270;20.984;2023-05-22T04:18:35;101027.40;;;15.36;71.33
54924;BME280;40825;52.270;20.984;2023-05-22T04:21:00;101026.50;;;15.24;71.64
54924;BME280;40825;52.270;20.984;2023-05-22T04:23:27;101025.88;;;15.29;71.16
54924;BME280;40825;52.270;20.984;2023-05-22T04:25:52;101023.67;;;15.31;71.20
54924;BME280;40825;52.270;20.984;2023-05-22T04:28:18;101019.91;;;15.38;70.69
54924;BME280;40825;52.270;20.984;2023-05-22T04:30:48;101015.83;;;15.35;69.65
54924;BME280;40825;52.270;20.984;2023-05-22T04:33:13;101016.89;;;15.45;68.45
54924;BME280;40825;52.270;20.984;2023-05-22T04:35:39;101013.86;;;16.11;66.85
54924;BME280;40825;52.270;20.984;2023-05-22T04:38:07;101010.40;;;16.91;61.12
54924;BME280;40825;52.270;20.984;2023-05-22T04:40:32;101012.05;;;17.50;59.14
54924;BME280;40825;52.270;20.984;2023-05-22T04:42:59;101009.07;;;18.20;61.66
54924;BME280;40825;52.270;20.984;2023-05-22T04:45:28;101011.86;;;18.84;60.54
54924;BME280;40825;52.270;20.984;2023-05-22T04:47:55;101010.69;;;19.50;59.39
54924;BME280;40825;52.270;20.984;2023-05-22T04:50:21;101013.82;;;20.04;56.56
54924;BME280;40825;52.270;20.984;2023-05-22T04:52:48;101015.96;;;20.44;54.97
54924;BME280;40825;52.270;20.984;2023-05-22T04:55:13;101014.25;;;20.45;59.64
54924;BME280;40825;52.270;20.984;2023-05-22T04:57:39;101016.47;;;20.19;54.03
54924;BME280;40825;52.270;20.984;2023-05-22T05:00:05;101017.99;;;19.98;56.28
54924;BME280;40825;52.270;20.984;2023-05-22T05:02:33;101018.09;;;19.88;58.20
54924;BME280;40825;52.270;20.984;2023-05-22T05:04:58;101015.64;;;19.78;55.68
54924;BME280;40825;52.270;20.984;2023-05-22T05:07:24;101015.73;;;19.69;58.19
54924;BME280;40825;52.270;20.984;2023-05-22T05:09:50;101014.37;;;19.62;56.88
54924;BME280;40825;52.270;20.984;2023-05-22T05:12:15;101011.39;;;19.60;56.49
54924;BME280;40825;52.270;20.984;2023-05-22T05:14:41;101014.77;;;19.29;51.70
54924;BME280;40825;52.270;20.984;2023-05-22T05:17:06;101013.86;;;18.88;51.29
54924;BME280;40825;52.270;20.984;2023-05-22T05:19:32;101016.43;;;18.68;54.24
54924;BME280;40825;52.270;20.984;2023-05-22T05:21:59;101018.39;;;18.64;55.95
54924;BME280;40825;52.270;20.984;2023-05-22T05:24:24;101017.57;;;18.64;56.45
54924;BME280;40825;52.270;20.984;2023-05-22T05:26:50;101021.22;;;18.63;56.24
54924;BME280;40825;52.270;20.984;2023-05-22T05:29:16;101026.30;;;18.56;54.76
54924;BME280;40825;52.270;20.984;2023-05-22T05:31:41;101026.09;;;18.43;54.13
54924;BME280;40825;52.270;20.984;2023-05-22T05:34:07;101020.11;;;18.39;55.00
54924;BME280;40825;52.270;20.984;2023-05-22T05:36:33;101020.27;;;18.36;53.50
54924;BME280;40825;52.270;20.984;2023-05-22T05:38:58;101017.92;;;18.32;53.21
54924;BME280;40825;52.270;20.984;2023-05-22T05:41:25;101019.01;;;18.31;53.15
54924;BME280;40825;52.270;20.984;2023-05-22T05:43:51;101019.11;;;18.36;53.72
54924;BME280;40825;52.270;20.984;2023-05-22T05:46:19;101016.52;;;18.43;53.87
54924;BME280;40825;52.270;20.984;2023-05-22T05:48:45;101023.73;;;18.54;53.54
54924;BME280;40825;52.270;20.984;2023-05-22T05:51:11;101024.03;;;18.57;51.43
54924;BME280;40825;52.270;20.984;2023-05-22T05:53:36;101018.14;;;18.65;52.27
54924;BME280;40825;52.270;20.984;2023-05-22T05:56:02;101017.54;;;18.86;52.81
54924;BME280;40825;52.270;20.984;2023-05-22T05:58:28;101019.51;;;19.01;53.48
54924;BME280;40825;52.270;20.984;2023-05-22T06:00:53;101020.41;;;19.18;53.75
54924;BME280;40825;52.270;20.984;2023-05-22T06:03:19;101019.41;;;19.26;52.88
54924;BME280;40825;52.270;20.984;2023-05-22T06:05:45;101021.50;;;19.32;53.65
54924;BME280;40825;52.270;20.984;2023-05-22T06:08:11;101014.77;;;19.60;53.88
54924;BME280;40825;52.270;20.984;2023-05-22T06:10:38;101014.13;;;19.80;52.36
54924;BME280;40825;52.270;20.984;2023-05-22T06:13:03;101015.48;;;19.83;50.09
54924;BME280;40825;52.270;20.984;2023-05-22T06:15:29;101011.13;;;20.08;51.11
54924;BME280;40825;52.270;20.984;2023-05-22T06:17:56;101009.23;;;20.43;52.26
54924;BME280;40825;52.270;20.984;2023-05-22T06:20:22;101010.27;;;20.68;49.23
54924;BME280;40825;52.270;20.984;2023-05-22T06:22:50;101004.15;;;20.80;49.48
54924;BME280;40825;52.270;20.984;2023-05-22T06:25:16;101004.31;;;20.99;49.93
54924;BME280;40825;52.270;20.984;2023-05-22T06:27:42;101005.11;;;21.15;47.05
54924;BME280;40825;52.270;20.984;2023-05-22T06:30:08;101000.15;;;21.28;47.41
54924;BME280;40825;52.270;20.984;2023-05-22T06:32:33;101001.97;;;21.41;47.25
54924;BME280;40825;52.270;20.984;2023-05-22T06:34:59;101000.20;;;21.65;48.21
54924;BME280;40825;52.270;20.984;2023-05-22T06:37:24;101000.37;;;21.81;46.46
54924;BME280;40825;52.270;20.984;2023-05-22T06:39:51;100998.06;;;21.93;45.88
54924;BME280;40825;52.270;20.984;2023-05-22T06:42:16;100998.11;;;22.25;45.28
54924;BME280;40825;52.270;20.984;2023-05-22T06:44:42;100994.80;;;22.55;46.18
54924;BME280;40825;52.270;20.984;2023-05-22T06:47:07;100994.08;;;22.69;46.83
54924;BME280;40825;52.270;20.984;2023-05-22T06:49:33;100995.88;;;22.82;46.70
54924;BME280;40825;52.270;20.984;2023-05-22T06:51:58;100997.64;;;23.05;45.09
54924;BME280;40825;52.270;20.984;2023-05-22T06:54:24;100996.86;;;23.04;41.40
54924;BME280;40825;52.270;20.984;2023-05-22T06:56:53;100994.72;;;22.93;41.25
54924;BME280;40825;52.270;20.984;2023-05-22T06:59:19;100996.20;;;23.30;41.32
54924;BME280;40825;52.270;20.984;2023-05-22T07:01:45;100995.34;;;24.04;42.68
54924;BME280;40825;52.270;20.984;2023-05-22T07:04:11;100998.08;;;24.81;40.06
54924;BME280;40825;52.270;20.984;2023-05-22T07:06:38;100993.47;;;25.57;39.27
54924;BME280;40825;52.270;20.984;2023-05-22T07:09:06;100992.19;;;26.28;39.95
54924;BME280;40825;52.270;20.984;2023-05-22T07:11:32;100992.33;;;26.88;37.77
54924;BME280;40825;52.270;20.984;2023-05-22T07:14:00;100992.03;;;27.11;34.07
54924;BME280;40825;52.270;20.984;2023-05-22T07:16:26;100989.34;;;27.60;36.83
54924;BME280;40825;52.270;20.984;2023-05-22T07:18:52;100989.82;;;27.98;33.81
54924;BME280;40825;52.270;20.984;2023-05-22T07:21:17;100992.95;;;28.42;31.40
54924;BME280;40825;52.270;20.984;2023-05-22T07:23:43;100987.64;;;28.66;30.47
54924;BME280;40825;52.270;20.984;2023-05-22T07:26:08;100990.55;;;28.98;30.38
54924;BME280;40825;52.270;20.984;2023-05-22T07:28:34;100988.41;;;29.24;28.31
54924;BME280;40825;52.270;20.984;2023-05-22T07:30:59;100986.21;;;29.76;30.50
54924;BME280;40825;52.270;20.984;2023-05-22T07:33:25;100986.50;;;30.22;29.37
54924;BME280;40825;52.270;20.984;2023-05-22T07:35:51;100986.48;;;30.40;28.09
54924;BME280;40825;52.270;20.984;2023-05-22T07:38:17;100985.48;;;30.33;27.50
54924;BME280;40825;52.270;20.984;2023-05-22T07:40:42;100984.88;;;30.59;28.25
54924;BME280;40825;52.270;20.984;2023-05-22T07:43:08;100988.34;;;30.48;26.07
54924;BME280;40825;52.270;20.984;2023-05-22T07:45:33;100986.48;;;29.67;26.38
54924;BME280;40825;52.270;20.984;2023-05-22T07:47:59;100984.74;;;29.33;29.62
54924;BME280;40825;52.270;20.984;2023-05-22T07:50:26;100975.55;;;29.13;29.53
54924;BME280;40825;52.270;20.984;2023-05-22T07:52:55;100976.84;;;28.99;29.76
54924;BME280;40825;52.270;20.984;2023-05-22T07:55:20;100975.90;;;28.62;27.62
54924;BME280;40825;52.270;20.984;2023-05-22T07:57:46;100973.23;;;28.45;29.24
54924;BME280;40825;52.270;20.984;2023-05-22T08:00:12;100969.44;;;28.57;29.80
54924;BME280;40825;52.270;20.984;2023-05-22T08:02:42;100967.26;;;28.41;29.18
54924;BME280;40825;52.270;20.984;2023-05-22T08:05:08;100969.73;;;27.89;28.40
54924;BME280;40825;52.270;20.984;2023-05-22T08:07:34;100968.69;;;27.42;29.67
54924;BME280;40825;52.270;20.984;2023-05-22T08:10:05;100969.65;;;27.00;29.49
54924;BME280;40825;52.270;20.984;2023-05-22T08:12:31;100973.16;;;26.65;28.91
54924;BME280;40825;52.270;20.984;2023-05-22T08:14:57;100973.05;;;26.44;29.47
54924;BME280;40825;52.270;20.984;2023-05-22T08:17:22;100968.67;;;26.34;29.61
54924;BME280;40825;52.270;20.984;2023-05-22T08:19:47;100966.29;;;26.62;30.35
54924;BME280;40825;52.270;20.984;2023-05-22T08:22:13;100961.95;;;27.26;29.98
54924;BME280;40825;52.270;20.984;2023-05-22T08:24:39;100967.36;;;28.05;28.96
54924;BME280;40825;52.270;20.984;2023-05-22T08:27:05;100962.70;;;28.77;27.75
54924;BME280;40825;52.270;20.984;2023-05-22T08:29:30;100961.84;;;29.20;27.69
54924;BME280;40825;52.270;20.984;2023-05-22T08:31:56;100953.60;;;29.39;26.25
54924;BME280;40825;52.270;20.984;2023-05-22T08:34:25;100958.73;;;29.09;26.19
54924;BME280;40825;52.270;20.984;2023-05-22T08:36:52;100959.95;;;29.32;27.74
54924;BME280;40825;52.270;20.984;2023-05-22T08:39:20;100960.89;;;29.41;26.80
54924;BME280;40825;52.270;20.984;2023-05-22T08:41:46;100959.32;;;29.54;26.83
54924;BME280;40825;52.270;20.984;2023-05-22T08:44:12;100960.34;;;28.72;26.02
54924;BME280;40825;52.270;20.984;2023-05-22T08:46:38;100956.89;;;27.93;26.40
54924;BME280;40825;52.270;20.984;2023-05-22T08:49:09;100954.59;;;27.72;27.71
54924;BME280;40825;52.270;20.984;2023-05-22T08:51:40;100953.74;;;26.99;27.48
54924;BME280;40825;52.270;20.984;2023-05-22T08:54:07;100955.94;;;26.19;28.26
54924;BME280;40825;52.270;20.984;2023-05-22T08:56:34;100958.10;;;25.68;29.41
54924;BME280;40825;52.270;20.984;2023-05-22T08:59:00;100952.98;;;25.16;29.68
54924;BME280;40825;52.270;20.984;2023-05-22T09:01:27;100953.96;;;24.91;30.06
54924;BME280;40825;52.270;20.984;2023-05-22T09:03:58;100955.09;;;24.65;30.92
54924;BME280;40825;52.270;20.984;2023-05-22T09:06:24;100952.86;;;24.29;31.05
54924;BME280;40825;52.270;20.984;2023-05-22T09:08:50;100946.50;;;24.00;31.70
54924;BME280;40825;52.270;20.984;2023-05-22T09:11:16;100943.22;;;23.82;32.03
54924;BME280;40825;52.270;20.984;2023-05-22T09:13:42;100942.04;;;23.71;32.36
54924;BME280;40825;52.270;20.984;2023-05-22T09:16:10;100938.11;;;23.58;32.86
54924;BME280;40825;52.270;20.984;2023-05-22T09:18:36;100933.64;;;23.37;33.11
54924;BME280;40825;52.270;20.984;2023-05-22T09:21:03;100929.67;;;23.14;32.95
54924;BME280;40825;52.270;20.984;2023-05-22T09:23:29;100931.51;;;22.95;32.71
54924;BME280;40825;52.270;20.984;2023-05-22T09:25:59;100932.44;;;22.87;33.59
54924;BME280;40825;52.270;20.984;2023-05-22T09:28:25;100927.41;;;22.73;33.32
54924;BME280;40825;52.270;20.984;2023-05-22T09:30:52;100926.86;;;22.65;33.76
54924;BME280;40825;52.270;20.984;2023-05-22T09:33:18;100924.30;;;22.52;33.99
54924;BME280;40825;52.270;20.984;2023-05-22T09:35:45;100919.91;;;22.44;33.82
54924;BME280;40825;52.270;20.984;2023-05-22T09:38:12;100918.46;;;22.47;34.63
54924;BME280;40825;52.270;20.984;2023-05-22T09:40:38;100917.70;;;22.56;34.79
54924;BME280;40825;52.270;20.984;2023-05-22T09:43:10;100917.23;;;22.64;35.20
54924;BME280;40825;52.270;20.984;2023-05-22T09:45:37;100914.96;;;22.73;35.25
54924;BME280;40825;52.270;20.984;2023-05-22T09:48:04;100912.48;;;22.91;34.65
54924;BME280;40825;52.270;20.984;2023-05-22T09:50:33;100915.41;;;23.15;34.34
54924;BME280;40825;52.270;20.984;2023-05-22T09:53:02;100915.09;;;23.31;33.51
54924;BME280;40825;52.270;20.984;2023-05-22T09:55:28;100914.40;;;23.48;33.49
54924;BME280;40825;52.270;20.984;2023-05-22T09:57:55;100913.00;;;23.52;32.25
54924;BME280;40825;52.270;20.984;2023-05-22T10:00:22;100911.89;;;23.44;32.12
54924;BME280;40825;52.270;20.984;2023-05-22T10:02:58;100911.52;;;23.49;32.94
54924;BME280;40825;52.270;20.984;2023-05-22T10:05:31;100913.02;;;23.56;33.22
54924;BME280;40825;52.270;20.984;2023-05-22T10:08:03;100911.40;;;23.57;33.00
54924;BME280;40825;52.270;20.984;2023-05-22T10:10:31;100911.48;;;23.49;31.84
54924;BME280;40825;52.270;20.984;2023-05-22T10:13:02;100912.60;;;23.44;32.08
54924;BME280;40825;52.270;20.984;2023-05-22T10:15:29;100914.52;;;23.47;32.36
54924;BME280;40825;52.270;20.984;2023-05-22T10:17:55;100909.60;;;23.57;32.64
54924;BME280;40825;52.270;20.984;2023-05-22T10:20:23;100907.30;;;23.70;33.60
54924;BME280;40825;52.270;20.984;2023-05-22T10:22:52;100906.84;;;23.80;32.21
54924;BME280;40825;52.270;20.984;2023-05-22T10:25:18;100903.73;;;23.80;31.98
54924;BME280;40825;52.270;20.984;2023-05-22T10:27:46;100900.65;;;23.87;32.44
54924;BME280;40825;52.270;20.984;2023-05-22T10:30:20;100902.84;;;23.89;31.72
54924;BME280;40825;52.270;20.984;2023-05-22T10:33:12;100903.25;;;23.82;31.03
54924;BME280;40825;52.270;20.984;2023-05-22T10:35:43;100899.91;;;23.74;31.54
54924;BME280;40825;52.270;20.984;2023-05-22T10:41:02;100896.61;;;23.66;31.87
54924;BME280;40825;52.270;20.984;2023-05-22T10:43:29;100895.70;;;23.56;31.93
54924;BME280;40825;52.270;20.984;2023-05-22T10:46:03;100894.59;;;23.50;32.43
54924;BME280;40825;52.270;20.984;2023-05-22T10:48:39;100893.33;;;23.49;32.45
54924;BME280;40825;52.270;20.984;2023-05-22T10:51:06;100889.27;;;23.42;31.90
54924;BME280;40825;52.270;20.984;2023-05-22T10:53:33;100891.82;;;23.42;32.22
54924;BME280;40825;52.270;20.984;2023-05-22T10:56:11;100890.05;;;23.46;32.14
54924;BME280;40825;52.270;20.984;2023-05-22T10:58:38;100889.08;;;23.39;31.57
54924;BME280;40825;52.270;20.984;2023-05-22T11:01:17;100884.08;;;23.40;32.00
54924;BME280;40825;52.270;20.984;2023-05-22T11:04:11;100884.77;;;23.49;32.11
54924;BME280;40825;52.270;20.984;2023-05-22T11:06:39;100886.52;;;23.49;31.89
54924;BME280;40825;52.270;20.984;2023-05-22T11:09:30;100882.49;;;23.53;32.23
54924;BME280;40825;52.270;20.984;2023-05-22T11:20:21;100873.69;;;23.71;32.79
54924;BME280;40825;52.270;20.984;2023-05-22T11:22:55;100875.92;;;23.61;32.00
54924;BME280;40825;52.270;20.984;2023-05-22T11:25:21;100863.11;;;23.59;32.37
54924;BME280;40825;52.270;20.984;2023-05-22T11:27:48;100863.81;;;23.55;32.39
54924;BME280;40825;52.270;20.984;2023-05-22T11:30:15;100857.39;;;23.56;32.62
54924;BME280;40825;52.270;20.984;2023-05-22T11:32:43;100855.15;;;23.56;32.01
54924;BME280;40825;52.270;20.984;2023-05-22T11:35:13;100854.10;;;23.53;32.22
54924;BME280;40825;52.270;20.984;2023-05-22T11:37:39;100851.22;;;23.56;32.43
54924;BME280;40825;52.270;20.984;2023-05-22T11:40:06;100852.88;;;23.62;33.49
54924;BME280;40825;52.270;20.984;2023-05-22T11:42:32;100852.96;;;23.53;31.86
54924;BME280;40825;52.270;20.984;2023-05-22T11:44:58;100848.52;;;23.44;31.53
54924;BME280;40825;52.270;20.984;2023-05-22T11:47:26;100850.95;;;23.41;31.84
54924;BME280;40825;52.270;20.984;2023-05-22T11:49:52;100850.59;;;23.35;31.60
54924;BME280;40825;52.270;20.984;2023-05-22T11:52:18;100846.62;;;23.37;32.18
54924;BME280;40825;52.270;20.984;2023-05-22T11:54:45;100843.38;;;23.42;32.62
54924;BME280;40825;52.270;20.984;2023-05-22T11:57:11;100838.79;;;23.39;31.79
54924;BME280;40825;52.270;20.984;2023-05-22T11:59:37;100836.09;;;23.46;32.12
54924;BME280;40825;52.270;20.984;2023-05-22T12:02:03;100837.86;;;23.51;31.88
54924;BME280;40825;52.270;20.984;2023-05-22T12:04:28;100835.59;;;23.58;32.32
54924;BME280;40825;52.270;20.984;2023-05-22T12:06:55;100831.63;;;23.69;32.86
54924;BME280;40825;52.270;20.984;2023-05-22T12:09:21;100831.33;;;23.76;32.27
54924;BME280;40825;52.270;20.984;2023-05-22T12:11:47;100828.21;;;23.76;32.15
54924;BME280;40825;52.270;20.984;2023-05-22T12:14:12;100825.05;;;23.80;32.35
54924;BME280;40825;52.270;20.984;2023-05-22T12:16:39;100824.02;;;23.85;32.77
54924;BME280;40825;52.270;20.984;2023-05-22T12:19:08;100821.13;;;23.76;31.69
54924;BME280;40825;52.270;20.984;2023-05-22T12:21:34;100821.70;;;23.59;31.49
54924;BME280;40825;52.270;20.984;2023-05-22T12:24:05;100820.46;;;23.52;31.45
54924;BME280;40825;52.270;20.984;2023-05-22T12:26:31;100816.05;;;23.50;31.71
54924;BME280;40825;52.270;20.984;2023-05-22T12:28:57;100814.13;;;23.49;32.13
54924;BME280;40825;52.270;20.984;2023-05-22T12:31:23;100815.77;;;23.49;32.51
54924;BME280;40825;52.270;20.984;2023-05-22T12:33:56;100811.13;;;23.42;32.19
54924;BME280;40825;52.270;20.984;2023-05-22T12:36:38;100806.91;;;23.38;32.31
54924;BME280;40825;52.270;20.984;2023-05-22T12:39:12;100805.50;;;23.38;32.45
54924;BME280;40825;52.270;20.984;2023-05-22T12:41:40;100806.48;;;23.40;32.19
54924;BME280;40825;52.270;20.984;2023-05-22T12:44:05;100804.69;;;23.41;32.64
54924;BME280;40825;52.270;20.984;2023-05-22T12:46:31;100805.31;;;23.47;32.60
54924;BME280;40825;52.270;20.984;2023-05-22T12:48:58;100799.38;;;23.52;32.45
54924;BME280;40825;52.270;20.984;2023-05-22T12:51:28;100798.85;;;23.54;32.36
54924;BME280;40825;52.270;20.984;2023-05-22T12:53:55;100801.11;;;23.48;32.16
54924;BME280;40825;52.270;20.984;2023-05-22T12:56:21;100798.02;;;23.34;32.18
54924;BME280;40825;52.270;20.984;2023-05-22T12:58:47;100796.33;;;23.24;32.46
54924;BME280;40825;52.270;20.984;2023-05-22T13:01:12;100797.64;;;23.26;32.47
54924;BME280;40825;52.270;20.984;2023-05-22T13:03:38;100798.08;;;23.33;32.70
54924;BME280;40825;52.270;20.984;2023-05-22T13:06:04;100798.94;;;23.33;32.61